CheckWX is a tool to help pilots better visualize weather data.  It is not intended as a substitute for an official pre-flight weather briefing.

03:51:48 UTC

FNUG METAR
Uige Airport
Uige, Angola
Current

12 hours ago

FNUG 261600Z 27008KT 9999 FEW024 28/21 Q1011
Observed
May-26 @ 16:00 UTC
Wind
  • 270° at 8 KTS
Visibility
10,000+ meters
Flight Rules
VFR
Cloud Levels
  • Few at 2,400' AGL
Temperature
28°C / 82°F
Dewpoint
21°C / 70°F
Heat Index
30°C / 86°F
Humidity
66%
Altimeter
29.85" Hg
Pressure
1010.92 hPa
Previous

13 hours ago

FNUG 261500Z 27008KT 9999 FEW024 30/21 Q1011
Observed
May-26 @ 15:00 UTC
Wind
  • 270° at 8 KTS
Visibility
10,000+ meters
Flight Rules
VFR
Cloud Levels
  • Few at 2,400' AGL
Temperature
30°C / 86°F
Dewpoint
21°C / 70°F
Heat Index
33°C / 91°F
Humidity
59%
Altimeter
29.85" Hg
Pressure
1010.92 hPa
Previous

15 hours ago

FNUG 261300Z 24008KT 9999 FEW024 30/18 Q1012
Observed
May-26 @ 13:00 UTC
Wind
  • 240° at 8 KTS
Visibility
10,000+ meters
Flight Rules
VFR
Cloud Levels
  • Few at 2,400' AGL
Temperature
30°C / 86°F
Dewpoint
18°C / 64°F
Heat Index
31°C / 88°F
Humidity
49%
Altimeter
29.88" Hg
Pressure
1011.92 hPa